sensor_id;sensor_type;location;lat;lon;timestamp;P1;durP1;ratioP1;P2;durP2;ratioP2
38465;SDS011;24244;51.950;5.902;2022-11-20T00:02:11;0.60;;;0.60;;
38465;SDS011;24244;51.950;5.902;2022-11-20T00:04:38;0.60;;;0.60;;
38465;SDS011;24244;51.950;5.902;2022-11-20T00:07:10;0.60;;;0.60;;
38465;SDS011;24244;51.950;5.902;2022-11-20T00:09:37;0.68;;;0.68;;
38465;SDS011;24244;51.950;5.902;2022-11-20T00:12:05;0.70;;;0.70;;
38465;SDS011;24244;51.950;5.902;2022-11-20T00:14:36;0.60;;;0.60;;
38465;SDS011;24244;51.950;5.902;2022-11-20T00:17:03;0.63;;;0.63;;
38465;SDS011;24244;51.950;5.902;2022-11-20T00:19:31;0.60;;;0.60;;
38465;SDS011;24244;51.950;5.902;2022-11-20T00:22:01;0.70;;;0.70;;
38465;SDS011;24244;51.950;5.902;2022-11-20T00:24:33;0.60;;;0.60;;
38465;SDS011;24244;51.950;5.902;2022-11-20T00:27:08;0.70;;;0.70;;
38465;SDS011;24244;51.950;5.902;2022-11-20T00:29:39;0.70;;;0.70;;
38465;SDS011;24244;51.950;5.902;2022-11-20T00:32:09;0.60;;;0.60;;
38465;SDS011;24244;51.950;5.902;2022-11-20T00:34:36;0.60;;;0.60;;
38465;SDS011;24244;51.950;5.902;2022-11-20T00:37:03;0.70;;;0.70;;
38465;SDS011;24244;51.950;5.902;2022-11-20T00:39:32;0.60;;;0.60;;
38465;SDS011;24244;51.950;5.902;2022-11-20T00:42:09;0.70;;;0.70;;
38465;SDS011;24244;51.950;5.902;2022-11-20T00:44:37;0.70;;;0.70;;
38465;SDS011;24244;51.950;5.902;2022-11-20T00:47:04;0.70;;;0.70;;
38465;SDS011;24244;51.950;5.902;2022-11-20T00:49:32;0.60;;;0.60;;
38465;SDS011;24244;51.950;5.902;2022-11-20T00:51:59;0.65;;;0.65;;
38465;SDS011;24244;51.950;5.902;2022-11-20T00:54:26;0.70;;;0.70;;
38465;SDS011;24244;51.950;5.902;2022-11-20T00:56:54;0.60;;;0.60;;
38465;SDS011;24244;51.950;5.902;2022-11-20T00:59:21;0.70;;;0.70;;
38465;SDS011;24244;51.950;5.902;2022-11-20T01:01:48;0.60;;;0.60;;
38465;SDS011;24244;51.950;5.902;2022-11-20T01:04:16;0.70;;;0.70;;
38465;SDS011;24244;51.950;5.902;2022-11-20T01:06:45;0.70;;;0.70;;
38465;SDS011;24244;51.950;5.902;2022-11-20T01:09:12;0.70;;;0.70;;
38465;SDS011;24244;51.950;5.902;2022-11-20T01:11:41;0.70;;;0.70;;
38465;SDS011;24244;51.950;5.902;2022-11-20T01:16:40;0.70;;;0.70;;
38465;SDS011;24244;51.950;5.902;2022-11-20T01:19:10;0.60;;;0.60;;
38465;SDS011;24244;51.950;5.902;2022-11-20T01:21:50;0.70;;;0.70;;
38465;SDS011;24244;51.950;5.902;2022-11-20T01:24:19;0.65;;;0.65;;
38465;SDS011;24244;51.950;5.902;2022-11-20T01:26:48;0.70;;;0.70;;
38465;SDS011;24244;51.950;5.902;2022-11-20T01:29:19;0.70;;;0.70;;
38465;SDS011;24244;51.950;5.902;2022-11-20T01:31:48;0.60;;;0.60;;
38465;SDS011;24244;51.950;5.902;2022-11-20T01:34:18;0.60;;;0.60;;
38465;SDS011;24244;51.950;5.902;2022-11-20T01:36:46;0.70;;;0.70;;
38465;SDS011;24244;51.950;5.902;2022-11-20T01:39:14;0.70;;;0.70;;
38465;SDS011;24244;51.950;5.902;2022-11-20T01:41:43;0.70;;;0.70;;
38465;SDS011;24244;51.950;5.902;2022-11-20T01:44:51;0.70;;;0.70;;
38465;SDS011;24244;51.950;5.902;2022-11-20T01:47:22;0.60;;;0.60;;
38465;SDS011;24244;51.950;5.902;2022-11-20T01:49:54;0.60;;;0.60;;
38465;SDS011;24244;51.950;5.902;2022-11-20T01:52:25;0.60;;;0.60;;
38465;SDS011;24244;51.950;5.902;2022-11-20T01:54:58;0.70;;;0.70;;
38465;SDS011;24244;51.950;5.902;2022-11-20T01:57:30;0.70;;;0.70;;
38465;SDS011;24244;51.950;5.902;2022-11-20T02:00:03;0.65;;;0.65;;
38465;SDS011;24244;51.950;5.902;2022-11-20T02:06:15;0.70;;;0.70;;
38465;SDS011;24244;51.950;5.902;2022-11-20T02:08:45;0.70;;;0.70;;
38465;SDS011;24244;51.950;5.902;2022-11-20T02:11:12;0.70;;;0.70;;
38465;SDS011;24244;51.950;5.902;2022-11-20T02:13:39;0.70;;;0.70;;
38465;SDS011;24244;51.950;5.902;2022-11-20T02:16:18;0.70;;;0.70;;
38465;SDS011;24244;51.950;5.902;2022-11-20T02:18:48;0.60;;;0.60;;
38465;SDS011;24244;51.950;5.902;2022-11-20T02:21:24;0.70;;;0.70;;
38465;SDS011;24244;51.950;5.902;2022-11-20T02:24:08;0.70;;;0.70;;
38465;SDS011;24244;51.950;5.902;2022-11-20T02:26:43;0.70;;;0.70;;
38465;SDS011;24244;51.950;5.902;2022-11-20T02:29:16;0.70;;;0.70;;
38465;SDS011;24244;51.950;5.902;2022-11-20T02:31:46;0.70;;;0.70;;
38465;SDS011;24244;51.950;5.902;2022-11-20T02:34:13;0.70;;;0.70;;
38465;SDS011;24244;51.950;5.902;2022-11-20T02:36:40;0.70;;;0.70;;
38465;SDS011;24244;51.950;5.902;2022-11-20T02:39:10;0.70;;;0.70;;
38465;SDS011;24244;51.950;5.902;2022-11-20T02:41:39;0.70;;;0.70;;
38465;SDS011;24244;51.950;5.902;2022-11-20T02:44:07;0.70;;;0.70;;
38465;SDS011;24244;51.950;5.902;2022-11-20T02:46:34;0.70;;;0.70;;
38465;SDS011;24244;51.950;5.902;2022-11-20T02:49:02;0.70;;;0.70;;
38465;SDS011;24244;51.950;5.902;2022-11-20T02:51:30;0.60;;;0.60;;
38465;SDS011;24244;51.950;5.902;2022-11-20T02:54:01;0.70;;;0.70;;
38465;SDS011;24244;51.950;5.902;2022-11-20T02:56:33;0.70;;;0.70;;
38465;SDS011;24244;51.950;5.902;2022-11-20T02:59:01;0.60;;;0.60;;
38465;SDS011;24244;51.950;5.902;2022-11-20T03:01:28;0.70;;;0.70;;
38465;SDS011;24244;51.950;5.902;2022-11-20T03:03:59;0.70;;;0.70;;
38465;SDS011;24244;51.950;5.902;2022-11-20T03:06:28;0.70;;;0.70;;
38465;SDS011;24244;51.950;5.902;2022-11-20T03:08:55;0.70;;;0.70;;
38465;SDS011;24244;51.950;5.902;2022-11-20T03:11:22;0.70;;;0.70;;
38465;SDS011;24244;51.950;5.902;2022-11-20T03:13:51;0.70;;;0.70;;
38465;SDS011;24244;51.950;5.902;2022-11-20T03:16:20;0.70;;;0.70;;
38465;SDS011;24244;51.950;5.902;2022-11-20T03:18:48;0.60;;;0.60;;
38465;SDS011;24244;51.950;5.902;2022-11-20T03:21:27;0.60;;;0.60;;
38465;SDS011;24244;51.950;5.902;2022-11-20T03:23:59;0.70;;;0.70;;
38465;SDS011;24244;51.950;5.902;2022-11-20T03:26:26;0.68;;;0.68;;
38465;SDS011;24244;51.950;5.902;2022-11-20T03:28:56;0.70;;;0.70;;
38465;SDS011;24244;51.950;5.902;2022-11-20T03:31:26;0.75;;;0.75;;
38465;SDS011;24244;51.950;5.902;2022-11-20T03:33:56;0.70;;;0.70;;
38465;SDS011;24244;51.950;5.902;2022-11-20T03:36:27;0.70;;;0.70;;
38465;SDS011;24244;51.950;5.902;2022-11-20T03:41:24;0.80;;;0.80;;
38465;SDS011;24244;51.950;5.902;2022-11-20T03:43:56;0.70;;;0.70;;
38465;SDS011;24244;51.950;5.902;2022-11-20T03:46:25;0.70;;;0.70;;
38465;SDS011;24244;51.950;5.902;2022-11-20T03:48:52;0.70;;;0.70;;
38465;SDS011;24244;51.950;5.902;2022-11-20T03:51:20;0.80;;;0.80;;
38465;SDS011;24244;51.950;5.902;2022-11-20T03:53:49;0.73;;;0.73;;
38465;SDS011;24244;51.950;5.902;2022-11-20T03:56:18;0.70;;;0.70;;
38465;SDS011;24244;51.950;5.902;2022-11-20T03:58:48;0.80;;;0.80;;
38465;SDS011;24244;51.950;5.902;2022-11-20T04:01:17;0.80;;;0.80;;
38465;SDS011;24244;51.950;5.902;2022-11-20T04:03:44;0.80;;;0.80;;
38465;SDS011;24244;51.950;5.902;2022-11-20T04:06:13;0.70;;;0.70;;
38465;SDS011;24244;51.950;5.902;2022-11-20T04:08:41;0.70;;;0.70;;
38465;SDS011;24244;51.950;5.902;2022-11-20T04:11:12;0.70;;;0.70;;
38465;SDS011;24244;51.950;5.902;2022-11-20T04:13:41;0.70;;;0.70;;
38465;SDS011;24244;51.950;5.902;2022-11-20T04:16:09;0.70;;;0.70;;
38465;SDS011;24244;51.950;5.902;2022-11-20T04:18:37;0.75;;;0.75;;
38465;SDS011;24244;51.950;5.902;2022-11-20T04:21:04;0.70;;;0.70;;
38465;SDS011;24244;51.950;5.902;2022-11-20T04:23:32;0.70;;;0.70;;
38465;SDS011;24244;51.950;5.902;2022-11-20T04:26:02;0.70;;;0.70;;
38465;SDS011;24244;51.950;5.902;2022-11-20T04:28:32;0.70;;;0.70;;
38465;SDS011;24244;51.950;5.902;2022-11-20T04:31:05;0.70;;;0.70;;
38465;SDS011;24244;51.950;5.902;2022-11-20T04:33:33;0.70;;;0.70;;
38465;SDS011;24244;51.950;5.902;2022-11-20T04:36:03;0.70;;;0.70;;
38465;SDS011;24244;51.950;5.902;2022-11-20T04:38:33;0.80;;;0.80;;
38465;SDS011;24244;51.950;5.902;2022-11-20T04:41:04;0.75;;;0.75;;
38465;SDS011;24244;51.950;5.902;2022-11-20T04:43:32;0.70;;;0.70;;
38465;SDS011;24244;51.950;5.902;2022-11-20T04:45:59;0.70;;;0.70;;
38465;SDS011;24244;51.950;5.902;2022-11-20T04:48:34;0.70;;;0.70;;
38465;SDS011;24244;51.950;5.902;2022-11-20T04:51:03;0.65;;;0.65;;
38465;SDS011;24244;51.950;5.902;2022-11-20T04:53:30;0.77;;;0.77;;
38465;SDS011;24244;51.950;5.902;2022-11-20T04:56:01;0.70;;;0.70;;
38465;SDS011;24244;51.950;5.902;2022-11-20T04:58:30;0.70;;;0.70;;
38465;SDS011;24244;51.950;5.902;2022-11-20T05:01:00;0.80;;;0.80;;
38465;SDS011;24244;51.950;5.902;2022-11-20T05:03:29;0.80;;;0.80;;
38465;SDS011;24244;51.950;5.902;2022-11-20T05:05:55;0.77;;;0.77;;
38465;SDS011;24244;51.950;5.902;2022-11-20T05:08:24;0.80;;;0.80;;
38465;SDS011;24244;51.950;5.902;2022-11-20T05:10:51;0.70;;;0.70;;
38465;SDS011;24244;51.950;5.902;2022-11-20T05:13:17;0.70;;;0.70;;
38465;SDS011;24244;51.950;5.902;2022-11-20T05:15:44;0.75;;;0.75;;
38465;SDS011;24244;51.950;5.902;2022-11-20T05:18:11;0.70;;;0.70;;
38465;SDS011;24244;51.950;5.902;2022-11-20T05:20:38;0.70;;;0.70;;
38465;SDS011;24244;51.950;5.902;2022-11-20T05:23:05;0.70;;;0.70;;
38465;SDS011;24244;51.950;5.902;2022-11-20T05:25:33;0.80;;;0.80;;
38465;SDS011;24244;51.950;5.902;2022-11-20T05:27:59;0.80;;;0.80;;
38465;SDS011;24244;51.950;5.902;2022-11-20T05:30:28;0.70;;;0.70;;
38465;SDS011;24244;51.950;5.902;2022-11-20T05:32:54;0.80;;;0.80;;
38465;SDS011;24244;51.950;5.902;2022-11-20T05:35:21;0.80;;;0.80;;
38465;SDS011;24244;51.950;5.902;2022-11-20T05:37:48;0.80;;;0.80;;
38465;SDS011;24244;51.950;5.902;2022-11-20T05:40:15;0.80;;;0.80;;
38465;SDS011;24244;51.950;5.902;2022-11-20T05:42:43;0.80;;;0.80;;
38465;SDS011;24244;51.950;5.902;2022-11-20T05:45:10;0.80;;;0.80;;
38465;SDS011;24244;51.950;5.902;2022-11-20T05:47:37;0.80;;;0.80;;
38465;SDS011;24244;51.950;5.902;2022-11-20T05:50:04;0.80;;;0.80;;
38465;SDS011;24244;51.950;5.902;2022-11-20T05:52:33;0.90;;;0.90;;
38465;SDS011;24244;51.950;5.902;2022-11-20T05:55:00;0.80;;;0.80;;
38465;SDS011;24244;51.950;5.902;2022-11-20T05:57:27;0.73;;;0.73;;
38465;SDS011;24244;51.950;5.902;2022-11-20T05:59:55;0.80;;;0.80;;
38465;SDS011;24244;51.950;5.902;2022-11-20T06:02:22;0.82;;;0.82;;
38465;SDS011;24244;51.950;5.902;2022-11-20T06:04:50;0.68;;;0.68;;
38465;SDS011;24244;51.950;5.902;2022-11-20T06:07:17;0.80;;;0.80;;
38465;SDS011;24244;51.950;5.902;2022-11-20T06:09:46;0.70;;;0.70;;
38465;SDS011;24244;51.950;5.902;2022-11-20T06:12:14;0.80;;;0.80;;
38465;SDS011;24244;51.950;5.902;2022-11-20T06:14:40;0.80;;;0.80;;
38465;SDS011;24244;51.950;5.902;2022-11-20T06:17:09;0.80;;;0.80;;
38465;SDS011;24244;51.950;5.902;2022-11-20T06:19:35;0.80;;;0.80;;
38465;SDS011;24244;51.950;5.902;2022-11-20T06:22:02;0.88;;;0.88;;
38465;SDS011;24244;51.950;5.902;2022-11-20T06:24:29;0.80;;;0.80;;
38465;SDS011;24244;51.950;5.902;2022-11-20T06:26:56;0.70;;;0.70;;
38465;SDS011;24244;51.950;5.902;2022-11-20T06:29:23;0.90;;;0.90;;
38465;SDS011;24244;51.950;5.902;2022-11-20T06:31:55;0.80;;;0.80;;
38465;SDS011;24244;51.950;5.902;2022-11-20T06:34:24;0.82;;;0.82;;
38465;SDS011;24244;51.950;5.902;2022-11-20T06:36:51;0.80;;;0.80;;
38465;SDS011;24244;51.950;5.902;2022-11-20T06:39:19;0.80;;;0.80;;
38465;SDS011;24244;51.950;5.902;2022-11-20T06:41:48;0.80;;;0.80;;
38465;SDS011;24244;51.950;5.902;2022-11-20T06:44:19;0.82;;;0.82;;
38465;SDS011;24244;51.950;5.902;2022-11-20T06:46:46;0.90;;;0.90;;
38465;SDS011;24244;51.950;5.902;2022-11-20T06:49:13;0.80;;;0.80;;
38465;SDS011;24244;51.950;5.902;2022-11-20T06:51:41;0.80;;;0.80;;
38465;SDS011;24244;51.950;5.902;2022-11-20T06:54:08;0.90;;;0.90;;
38465;SDS011;24244;51.950;5.902;2022-11-20T06:56:35;0.90;;;0.90;;
38465;SDS011;24244;51.950;5.902;2022-11-20T06:59:03;0.80;;;0.80;;
38465;SDS011;24244;51.950;5.902;2022-11-20T07:01:31;0.90;;;0.90;;
38465;SDS011;24244;51.950;5.902;2022-11-20T07:03:58;0.80;;;0.80;;
38465;SDS011;24244;51.950;5.902;2022-11-20T07:06:25;0.85;;;0.85;;
38465;SDS011;24244;51.950;5.902;2022-11-20T07:08:53;0.80;;;0.80;;
38465;SDS011;24244;51.950;5.902;2022-11-20T07:11:20;0.80;;;0.80;;
38465;SDS011;24244;51.950;5.902;2022-11-20T07:13:47;0.70;;;0.70;;
38465;SDS011;24244;51.950;5.902;2022-11-20T07:16:14;0.80;;;0.80;;
38465;SDS011;24244;51.950;5.902;2022-11-20T07:18:40;0.90;;;0.90;;
38465;SDS011;24244;51.950;5.902;2022-11-20T07:21:16;0.70;;;0.70;;
38465;SDS011;24244;51.950;5.902;2022-11-20T07:23:45;0.88;;;0.88;;
38465;SDS011;24244;51.950;5.902;2022-11-20T07:26:13;0.73;;;0.73;;
38465;SDS011;24244;51.950;5.902;2022-11-20T07:28:40;0.80;;;0.80;;
38465;SDS011;24244;51.950;5.902;2022-11-20T07:31:10;0.80;;;0.80;;
38465;SDS011;24244;51.950;5.902;2022-11-20T07:33:44;0.77;;;0.77;;
38465;SDS011;24244;51.950;5.902;2022-11-20T07:36:14;0.77;;;0.77;;
38465;SDS011;24244;51.950;5.902;2022-11-20T07:38:40;0.80;;;0.80;;
38465;SDS011;24244;51.950;5.902;2022-11-20T07:41:07;0.80;;;0.80;;
38465;SDS011;24244;51.950;5.902;2022-11-20T07:43:35;0.80;;;0.80;;
38465;SDS011;24244;51.950;5.902;2022-11-20T07:46:06;0.73;;;0.73;;
38465;SDS011;24244;51.950;5.902;2022-11-20T07:48:33;0.82;;;0.82;;
38465;SDS011;24244;51.950;5.902;2022-11-20T07:51:01;0.80;;;0.80;;
38465;SDS011;24244;51.950;5.902;2022-11-20T07:53:29;0.80;;;0.80;;
38465;SDS011;24244;51.950;5.902;2022-11-20T07:55:59;0.80;;;0.80;;
38465;SDS011;24244;51.950;5.902;2022-11-20T07:58:28;0.80;;;0.80;;
38465;SDS011;24244;51.950;5.902;2022-11-20T08:01:01;0.73;;;0.73;;
38465;SDS011;24244;51.950;5.902;2022-11-20T08:03:30;0.70;;;0.70;;
38465;SDS011;24244;51.950;5.902;2022-11-20T08:05:58;0.80;;;0.80;;
38465;SDS011;24244;51.950;5.902;2022-11-20T08:08:27;0.70;;;0.70;;
38465;SDS011;24244;51.950;5.902;2022-11-20T08:10:59;0.70;;;0.70;;
38465;SDS011;24244;51.950;5.902;2022-11-20T08:13:44;0.70;;;0.70;;
38465;SDS011;24244;51.950;5.902;2022-11-20T08:16:31;0.70;;;0.70;;
38465;SDS011;24244;51.950;5.902;2022-11-20T08:19:02;0.70;;;0.70;;
38465;SDS011;24244;51.950;5.902;2022-11-20T08:21:31;0.85;;;0.85;;
38465;SDS011;24244;51.950;5.902;2022-11-20T08:24:04;0.70;;;0.70;;
38465;SDS011;24244;51.950;5.902;2022-11-20T08:26:32;0.80;;;0.80;;
38465;SDS011;24244;51.950;5.902;2022-11-20T08:29:00;0.70;;;0.70;;
38465;SDS011;24244;51.950;5.902;2022-11-20T08:31:27;0.80;;;0.80;;
38465;SDS011;24244;51.950;5.902;2022-11-20T08:33:55;0.80;;;0.80;;
38465;SDS011;24244;51.950;5.902;2022-11-20T08:36:22;0.80;;;0.80;;
38465;SDS011;24244;51.950;5.902;2022-11-20T08:38:50;0.70;;;0.70;;
38465;SDS011;24244;51.950;5.902;2022-11-20T08:41:17;0.70;;;0.70;;
38465;SDS011;24244;51.950;5.902;2022-11-20T08:43:55;0.70;;;0.70;;
38465;SDS011;24244;51.950;5.902;2022-11-20T08:46:24;0.70;;;0.70;;
38465;SDS011;24244;51.950;5.902;2022-11-20T08:48:52;0.60;;;0.60;;
38465;SDS011;24244;51.950;5.902;2022-11-20T08:51:21;0.70;;;0.70;;
38465;SDS011;24244;51.950;5.902;2022-11-20T08:53:48;0.70;;;0.70;;
38465;SDS011;24244;51.950;5.902;2022-11-20T08:56:15;0.60;;;0.60;;
38465;SDS011;24244;51.950;5.902;2022-11-20T08:58:44;0.70;;;0.70;;
38465;SDS011;24244;51.950;5.902;2022-11-20T09:01:31;0.70;;;0.70;;
38465;SDS011;24244;51.950;5.902;2022-11-20T09:03:58;0.70;;;0.70;;
38465;SDS011;24244;51.950;5.902;2022-11-20T09:06:29;0.70;;;0.70;;
38465;SDS011;24244;51.950;5.902;2022-11-20T09:08:56;0.80;;;0.80;;
38465;SDS011;24244;51.950;5.902;2022-11-20T09:11:30;0.73;;;0.73;;
38465;SDS011;24244;51.950;5.902;2022-11-20T09:13:59;0.70;;;0.70;;
38465;SDS011;24244;51.950;5.902;2022-11-20T09:16:27;0.63;;;0.63;;
38465;SDS011;24244;51.950;5.902;2022-11-20T09:18:54;0.70;;;0.70;;
38465;SDS011;24244;51.950;5.902;2022-11-20T09:21:43;0.70;;;0.70;;
38465;SDS011;24244;51.950;5.902;2022-11-20T09:24:10;0.70;;;0.70;;
38465;SDS011;24244;51.950;5.902;2022-11-20T09:26:37;0.70;;;0.70;;
38465;SDS011;24244;51.950;5.902;2022-11-20T09:29:04;0.70;;;0.70;;
38465;SDS011;24244;51.950;5.902;2022-11-20T09:31:32;0.70;;;0.70;;
38465;SDS011;24244;51.950;5.902;2022-11-20T09:33:59;0.70;;;0.70;;
38465;SDS011;24244;51.950;5.902;2022-11-20T09:36:29;0.70;;;0.70;;
38465;SDS011;24244;51.950;5.902;2022-11-20T09:38:58;0.70;;;0.70;;
38465;SDS011;24244;51.950;5.902;2022-11-20T09:41:32;0.65;;;0.65;;
38465;SDS011;24244;51.950;5.902;2022-11-20T09:44:18;0.60;;;0.60;;
38465;SDS011;24244;51.950;5.902;2022-11-20T09:46:59;0.60;;;0.60;;
38465;SDS011;24244;51.950;5.902;2022-11-20T09:49:32;0.60;;;0.60;;
38465;SDS011;24244;51.950;5.902;2022-11-20T09:52:14;0.70;;;0.70;;
38465;SDS011;24244;51.950;5.902;2022-11-20T09:54:50;0.65;;;0.65;;
38465;SDS011;24244;51.950;5.902;2022-11-20T09:59:47;0.70;;;0.70;;
38465;SDS011;24244;51.950;5.902;2022-11-20T10:02:24;0.70;;;0.70;;
38465;SDS011;24244;51.950;5.902;2022-11-20T10:04:57;0.60;;;0.60;;
38465;SDS011;24244;51.950;5.902;2022-11-20T10:07:30;0.60;;;0.60;;
38465;SDS011;24244;51.950;5.902;2022-11-20T10:10:13;0.70;;;0.70;;
38465;SDS011;24244;51.950;5.902;2022-11-20T10:12:48;0.60;;;0.60;;
38465;SDS011;24244;51.950;5.902;2022-11-20T10:15:32;0.60;;;0.60;;
38465;SDS011;24244;51.950;5.902;2022-11-20T10:18:10;0.60;;;0.60;;
38465;SDS011;24244;51.950;5.902;2022-11-20T10:20:47;0.60;;;0.60;;
38465;SDS011;24244;51.950;5.902;2022-11-20T10:23:42;0.70;;;0.70;;
38465;SDS011;24244;51.950;5.902;2022-11-20T10:26:22;0.60;;;0.60;;
38465;SDS011;24244;51.950;5.902;2022-11-20T10:29:02;0.60;;;0.60;;
38465;SDS011;24244;51.950;5.902;2022-11-20T10:31:36;0.60;;;0.60;;
38465;SDS011;24244;51.950;5.902;2022-11-20T10:34:06;0.60;;;0.60;;
38465;SDS011;24244;51.950;5.902;2022-11-20T10:36:52;0.60;;;0.60;;
38465;SDS011;24244;51.950;5.902;2022-11-20T10:39:24;0.60;;;0.60;;
38465;SDS011;24244;51.950;5.902;2022-11-20T10:42:00;0.60;;;0.60;;
38465;SDS011;24244;51.950;5.902;2022-11-20T10:44:27;0.60;;;0.60;;
38465;SDS011;24244;51.950;5.902;2022-11-20T10:47:19;0.60;;;0.60;;
38465;SDS011;24244;51.950;5.902;2022-11-20T10:49:50;0.60;;;0.60;;
38465;SDS011;24244;51.950;5.902;2022-11-20T10:52:20;0.60;;;0.60;;
38465;SDS011;24244;51.950;5.902;2022-11-20T10:54:54;0.50;;;0.50;;
38465;SDS011;24244;51.950;5.902;2022-11-20T10:57:31;0.60;;;0.60;;
38465;SDS011;24244;51.950;5.902;2022-11-20T11:00:13;0.50;;;0.50;;
38465;SDS011;24244;51.950;5.902;2022-11-20T11:02:44;0.60;;;0.60;;
38465;SDS011;24244;51.950;5.902;2022-11-20T11:05:17;0.60;;;0.60;;
38465;SDS011;24244;51.950;5.902;2022-11-20T11:07:51;0.60;;;0.60;;
38465;SDS011;24244;51.950;5.902;2022-11-20T11:10:21;0.60;;;0.60;;
38465;SDS011;24244;51.950;5.902;2022-11-20T11:12:53;0.60;;;0.60;;
38465;SDS011;24244;51.950;5.902;2022-11-20T11:15:27;0.50;;;0.50;;
38465;SDS011;24244;51.950;5.902;2022-11-20T11:17:55;0.50;;;0.50;;
38465;SDS011;24244;51.950;5.902;2022-11-20T11:20:23;0.50;;;0.50;;
38465;SDS011;24244;51.950;5.902;2022-11-20T11:22:53;0.50;;;0.50;;
38465;SDS011;24244;51.950;5.902;2022-11-20T11:27:55;0.50;;;0.50;;
38465;SDS011;24244;51.950;5.902;2022-11-20T11:30:25;0.60;;;0.60;;
38465;SDS011;24244;51.950;5.902;2022-11-20T11:33:05;0.50;;;0.50;;
38465;SDS011;24244;51.950;5.902;2022-11-20T11:35:39;0.50;;;0.50;;
38465;SDS011;24244;51.950;5.902;2022-11-20T11:38:17;0.50;;;0.50;;
38465;SDS011;24244;51.950;5.902;2022-11-20T11:40:47;0.50;;;0.50;;
38465;SDS011;24244;51.950;5.902;2022-11-20T11:45:05;0.50;;;0.50;;
38465;SDS011;24244;51.950;5.902;2022-11-20T11:47:33;0.50;;;0.50;;
38465;SDS011;24244;51.950;5.902;2022-11-20T11:50:14;0.50;;;0.50;;
38465;SDS011;24244;51.950;5.902;2022-11-20T11:52:45;0.50;;;0.50;;
38465;SDS011;24244;51.950;5.902;2022-11-20T11:55:17;0.50;;;0.50;;
38465;SDS011;24244;51.950;5.902;2022-11-20T11:57:54;0.47;;;0.47;;
38465;SDS011;24244;51.950;5.902;2022-11-20T12:00:27;0.50;;;0.50;;
38465;SDS011;24244;51.950;5.902;2022-11-20T12:02:57;0.50;;;0.50;;
38465;SDS011;24244;51.950;5.902;2022-11-20T12:05:34;0.50;;;0.50;;
38465;SDS011;24244;51.950;5.902;2022-11-20T12:08:06;0.40;;;0.40;;
38465;SDS011;24244;51.950;5.902;2022-11-20T12:10:43;0.50;;;0.50;;
38465;SDS011;24244;51.950;5.902;2022-11-20T12:13:20;0.40;;;0.40;;
38465;SDS011;24244;51.950;5.902;2022-11-20T12:15:54;0.50;;;0.50;;
38465;SDS011;24244;51.950;5.902;2022-11-20T12:18:21;0.50;;;0.50;;
38465;SDS011;24244;51.950;5.902;2022-11-20T12:20:54;0.50;;;0.50;;
38465;SDS011;24244;51.950;5.902;2022-11-20T12:23:36;0.50;;;0.50;;
38465;SDS011;24244;51.950;5.902;2022-11-20T12:26:15;0.50;;;0.50;;
38465;SDS011;24244;51.950;5.902;2022-11-20T12:28:56;0.50;;;0.50;;
38465;SDS011;24244;51.950;5.902;2022-11-20T12:31:41;0.40;;;0.40;;
38465;SDS011;24244;51.950;5.902;2022-11-20T12:34:24;0.50;;;0.50;;
38465;SDS011;24244;51.950;5.902;2022-11-20T12:37:08;0.50;;;0.50;;
38465;SDS011;24244;51.950;5.902;2022-11-20T12:39:42;0.50;;;0.50;;
38465;SDS011;24244;51.950;5.902;2022-11-20T12:45:46;0.40;;;0.40;;
38465;SDS011;24244;51.950;5.902;2022-11-20T12:48:40;0.50;;;0.50;;
38465;SDS011;24244;51.950;5.902;2022-11-20T12:51:21;0.50;;;0.50;;
38465;SDS011;24244;51.950;5.902;2022-11-20T12:54:02;0.50;;;0.50;;
38465;SDS011;24244;51.950;5.902;2022-11-20T12:56:46;0.50;;;0.50;;
38465;SDS011;24244;51.950;5.902;2022-11-20T12:59:29;0.50;;;0.50;;
38465;SDS011;24244;51.950;5.902;2022-11-20T13:02:11;0.50;;;0.50;;
38465;SDS011;24244;51.950;5.902;2022-11-20T13:04:55;0.40;;;0.40;;
38465;SDS011;24244;51.950;5.902;2022-11-20T13:07:34;0.47;;;0.47;;
38465;SDS011;24244;51.950;5.902;2022-11-20T13:10:03;0.40;;;0.40;;
38465;SDS011;24244;51.950;5.902;2022-11-20T13:12:40;0.40;;;0.40;;
38465;SDS011;24244;51.950;5.902;2022-11-20T13:15:14;0.40;;;0.40;;
38465;SDS011;24244;51.950;5.902;2022-11-20T13:17:50;0.40;;;0.40;;
38465;SDS011;24244;51.950;5.902;2022-11-20T13:20:24;0.43;;;0.43;;
38465;SDS011;24244;51.950;5.902;2022-11-20T13:22:51;0.50;;;0.50;;
38465;SDS011;24244;51.950;5.902;2022-11-20T13:25:25;0.40;;;0.40;;
38465;SDS011;24244;51.950;5.902;2022-11-20T13:27:55;0.40;;;0.40;;
38465;SDS011;24244;51.950;5.902;2022-11-20T13:30:24;0.40;;;0.40;;
38465;SDS011;24244;51.950;5.902;2022-11-20T13:32:52;0.40;;;0.40;;
38465;SDS011;24244;51.950;5.902;2022-11-20T13:35:25;0.40;;;0.40;;
38465;SDS011;24244;51.950;5.902;2022-11-20T13:38:02;0.40;;;0.40;;
38465;SDS011;24244;51.950;5.902;2022-11-20T13:40:31;0.40;;;0.40;;
38465;SDS011;24244;51.950;5.902;2022-11-20T13:43:04;0.40;;;0.40;;
38465;SDS011;24244;51.950;5.902;2022-11-20T13:45:36;0.47;;;0.47;;
38465;SDS011;24244;51.950;5.902;2022-11-20T13:48:04;0.40;;;0.40;;
38465;SDS011;24244;51.950;5.902;2022-11-20T13:50:59;0.50;;;0.50;;
38465;SDS011;24244;51.950;5.902;2022-11-20T13:53:36;0.40;;;0.40;;
38465;SDS011;24244;51.950;5.902;2022-11-20T13:56:16;0.40;;;0.40;;
38465;SDS011;24244;51.950;5.902;2022-11-20T13:58:52;0.40;;;0.40;;
38465;SDS011;24244;51.950;5.902;2022-11-20T14:01:30;0.40;;;0.40;;
38465;SDS011;24244;51.950;5.902;2022-11-20T14:03:58;0.40;;;0.40;;
38465;SDS011;24244;51.950;5.902;2022-11-20T14:06:34;0.40;;;0.40;;
38465;SDS011;24244;51.950;5.902;2022-11-20T14:09:10;0.40;;;0.40;;
38465;SDS011;24244;51.950;5.902;2022-11-20T14:11:45;0.40;;;0.40;;
38465;SDS011;24244;51.950;5.902;2022-11-20T14:14:15;0.45;;;0.45;;
38465;SDS011;24244;51.950;5.902;2022-11-20T14:16:43;0.40;;;0.40;;
38465;SDS011;24244;51.950;5.902;2022-11-20T14:19:26;0.40;;;0.40;;
38465;SDS011;24244;51.950;5.902;2022-11-20T14:22:08;0.40;;;0.40;;
38465;SDS011;24244;51.950;5.902;2022-11-20T14:24:37;0.40;;;0.40;;
38465;SDS011;24244;51.950;5.902;2022-11-20T14:27:04;0.50;;;0.50;;
38465;SDS011;24244;51.950;5.902;2022-11-20T14:29:33;0.40;;;0.40;;
38465;SDS011;24244;51.950;5.902;2022-11-20T14:32:02;0.40;;;0.40;;
38465;SDS011;24244;51.950;5.902;2022-11-20T14:34:33;0.40;;;0.40;;
38465;SDS011;24244;51.950;5.902;2022-11-20T14:37:10;0.40;;;0.40;;
38465;SDS011;24244;51.950;5.902;2022-11-20T14:39:46;0.32;;;0.32;;
38465;SDS011;24244;51.950;5.902;2022-11-20T14:42:16;0.40;;;0.40;;
38465;SDS011;24244;51.950;5.902;2022-11-20T14:44:43;0.40;;;0.40;;
38465;SDS011;24244;51.950;5.902;2022-11-20T14:47:12;0.40;;;0.40;;
38465;SDS011;24244;51.950;5.902;2022-11-20T14:49:41;0.40;;;0.40;;
38465;SDS011;24244;51.950;5.902;2022-11-20T14:52:14;0.40;;;0.40;;
38465;SDS011;24244;51.950;5.902;2022-11-20T14:54:44;0.40;;;0.40;;
38465;SDS011;24244;51.950;5.902;2022-11-20T14:57:23;0.40;;;0.40;;
38465;SDS011;24244;51.950;5.902;2022-11-20T14:59:51;0.40;;;0.40;;
38465;SDS011;24244;51.950;5.902;2022-11-20T15:02:31;0.40;;;0.40;;
38465;SDS011;24244;51.950;5.902;2022-11-20T15:04:59;0.40;;;0.40;;
38465;SDS011;24244;51.950;5.902;2022-11-20T15:07:31;0.40;;;0.40;;
38465;SDS011;24244;51.950;5.902;2022-11-20T15:10:01;0.40;;;0.40;;
38465;SDS011;24244;51.950;5.902;2022-11-20T15:12:29;0.40;;;0.40;;
38465;SDS011;24244;51.950;5.902;2022-11-20T15:14:58;0.40;;;0.40;;
38465;SDS011;24244;51.950;5.902;2022-11-20T15:17:26;0.40;;;0.40;;
38465;SDS011;24244;51.950;5.902;2022-11-20T15:19:53;0.40;;;0.40;;
38465;SDS011;24244;51.950;5.902;2022-11-20T15:22:20;0.45;;;0.45;;
38465;SDS011;24244;51.950;5.902;2022-11-20T15:24:48;0.40;;;0.40;;
38465;SDS011;24244;51.950;5.902;2022-11-20T15:27:15;0.40;;;0.40;;
38465;SDS011;24244;51.950;5.902;2022-11-20T15:29:43;0.40;;;0.40;;
38465;SDS011;24244;51.950;5.902;2022-11-20T15:32:10;0.40;;;0.40;;